sensor_id;sensor_type;location;lat;lon;timestamp;P1;durP1;ratioP1;P2;durP2;ratioP2
23561;SDS011;11959;49.418;8.728;2023-04-01T00:01:30;1.45;;;0.60;;
23561;SDS011;11959;49.418;8.728;2023-04-01T00:03:56;3.30;;;0.75;;
23561;SDS011;11959;49.418;8.728;2023-04-01T00:06:21;2.08;;;0.57;;
23561;SDS011;11959;49.418;8.728;2023-04-01T00:08:48;4.05;;;1.10;;
23561;SDS011;11959;49.418;8.728;2023-04-01T00:11:14;2.88;;;0.93;;
23561;SDS011;11959;49.418;8.728;2023-04-01T00:13:41;1.48;;;0.73;;
23561;SDS011;11959;49.418;8.728;2023-04-01T00:16:07;4.35;;;0.80;;
23561;SDS011;11959;49.418;8.728;2023-04-01T00:18:33;4.85;;;0.70;;
23561;SDS011;11959;49.418;8.728;2023-04-01T00:20:58;4.38;;;0.75;;
23561;SDS011;11959;49.418;8.728;2023-04-01T00:23:24;2.40;;;0.50;;
23561;SDS011;11959;49.418;8.728;2023-04-01T00:25:50;3.63;;;0.80;;
23561;SDS011;11959;49.418;8.728;2023-04-01T00:28:17;2.95;;;0.60;;
23561;SDS011;11959;49.418;8.728;2023-04-01T00:30:43;4.55;;;0.80;;
23561;SDS011;11959;49.418;8.728;2023-04-01T00:33:09;3.22;;;1.27;;
23561;SDS011;11959;49.418;8.728;2023-04-01T00:35:35;3.80;;;0.80;;
23561;SDS011;11959;49.418;8.728;2023-04-01T00:38:01;3.15;;;0.95;;
23561;SDS011;11959;49.418;8.728;2023-04-01T00:40:29;3.38;;;0.88;;
23561;SDS011;11959;49.418;8.728;2023-04-01T00:43:00;2.67;;;0.80;;
23561;SDS011;11959;49.418;8.728;2023-04-01T00:45:31;3.97;;;0.90;;
23561;SDS011;11959;49.418;8.728;2023-04-01T00:50:28;4.47;;;0.85;;
23561;SDS011;11959;49.418;8.728;2023-04-01T00:52:55;1.65;;;0.50;;
23561;SDS011;11959;49.418;8.728;2023-04-01T00:55:22;4.28;;;0.98;;
23561;SDS011;11959;49.418;8.728;2023-04-01T00:57:49;4.35;;;0.90;;
23561;SDS011;11959;49.418;8.728;2023-04-01T01:00:18;2.53;;;0.75;;
23561;SDS011;11959;49.418;8.728;2023-04-01T01:02:44;3.05;;;0.98;;
23561;SDS011;11959;49.418;8.728;2023-04-01T01:05:14;3.50;;;0.70;;
23561;SDS011;11959;49.418;8.728;2023-04-01T01:07:45;4.50;;;1.00;;
23561;SDS011;11959;49.418;8.728;2023-04-01T01:10:31;2.10;;;0.60;;
23561;SDS011;11959;49.418;8.728;2023-04-01T01:15:36;4.50;;;0.90;;
23561;SDS011;11959;49.418;8.728;2023-04-01T01:26:34;4.15;;;1.10;;
23561;SDS011;11959;49.418;8.728;2023-04-01T01:32:04;6.13;;;1.10;;
23561;SDS011;11959;49.418;8.728;2023-04-01T01:37:49;4.90;;;1.00;;
23561;SDS011;11959;49.418;8.728;2023-04-01T01:40:19;7.22;;;0.85;;
23561;SDS011;11959;49.418;8.728;2023-04-01T01:42:50;3.40;;;0.90;;
23561;SDS011;11959;49.418;8.728;2023-04-01T01:45:20;2.58;;;0.75;;
23561;SDS011;11959;49.418;8.728;2023-04-01T01:47:48;2.63;;;0.93;;
23561;SDS011;11959;49.418;8.728;2023-04-01T01:50:16;4.28;;;1.00;;
23561;SDS011;11959;49.418;8.728;2023-04-01T01:52:43;4.25;;;1.00;;
23561;SDS011;11959;49.418;8.728;2023-04-01T01:55:28;3.20;;;0.80;;
23561;SDS011;11959;49.418;8.728;2023-04-01T01:57:58;5.60;;;1.08;;
23561;SDS011;11959;49.418;8.728;2023-04-01T02:00:27;3.97;;;1.40;;
23561;SDS011;11959;49.418;8.728;2023-04-01T02:02:53;3.03;;;0.63;;
23561;SDS011;11959;49.418;8.728;2023-04-01T02:05:23;3.97;;;0.82;;
23561;SDS011;11959;49.418;8.728;2023-04-01T02:07:55;4.75;;;1.00;;
23561;SDS011;11959;49.418;8.728;2023-04-01T02:10:26;3.55;;;0.80;;
23561;SDS011;11959;49.418;8.728;2023-04-01T02:12:56;4.47;;;1.30;;
23561;SDS011;11959;49.418;8.728;2023-04-01T02:15:27;4.87;;;1.10;;
23561;SDS011;11959;49.418;8.728;2023-04-01T02:17:56;4.70;;;0.70;;
23561;SDS011;11959;49.418;8.728;2023-04-01T02:20:23;3.85;;;1.10;;
23561;SDS011;11959;49.418;8.728;2023-04-01T02:22:50;4.53;;;0.60;;
23561;SDS011;11959;49.418;8.728;2023-04-01T02:25:20;4.63;;;0.80;;
23561;SDS011;11959;49.418;8.728;2023-04-01T02:27:58;5.97;;;1.10;;
23561;SDS011;11959;49.418;8.728;2023-04-01T02:30:27;4.10;;;0.88;;
23561;SDS011;11959;49.418;8.728;2023-04-01T02:32:55;3.67;;;0.90;;
23561;SDS011;11959;49.418;8.728;2023-04-01T02:35:22;3.80;;;0.93;;
23561;SDS011;11959;49.418;8.728;2023-04-01T02:37:49;4.55;;;0.70;;
23561;SDS011;11959;49.418;8.728;2023-04-01T02:40:16;3.72;;;0.85;;
23561;SDS011;11959;49.418;8.728;2023-04-01T02:42:42;3.55;;;0.75;;
23561;SDS011;11959;49.418;8.728;2023-04-01T02:45:08;3.33;;;0.85;;
23561;SDS011;11959;49.418;8.728;2023-04-01T02:47:35;3.28;;;0.75;;
23561;SDS011;11959;49.418;8.728;2023-04-01T02:50:00;3.83;;;0.82;;
23561;SDS011;11959;49.418;8.728;2023-04-01T02:52:26;4.30;;;0.70;;
23561;SDS011;11959;49.418;8.728;2023-04-01T02:54:54;2.80;;;0.98;;
23561;SDS011;11959;49.418;8.728;2023-04-01T02:57:20;4.70;;;0.93;;
23561;SDS011;11959;49.418;8.728;2023-04-01T02:59:46;5.60;;;0.70;;
23561;SDS011;11959;49.418;8.728;2023-04-01T03:02:13;4.10;;;1.05;;
23561;SDS011;11959;49.418;8.728;2023-04-01T03:04:38;4.55;;;0.63;;
23561;SDS011;11959;49.418;8.728;2023-04-01T03:07:04;2.63;;;0.75;;
23561;SDS011;11959;49.418;8.728;2023-04-01T03:09:30;3.97;;;1.00;;
23561;SDS011;11959;49.418;8.728;2023-04-01T03:11:56;2.83;;;0.90;;
23561;SDS011;11959;49.418;8.728;2023-04-01T03:14:21;2.38;;;1.00;;
23561;SDS011;11959;49.418;8.728;2023-04-01T03:16:47;6.13;;;0.80;;
23561;SDS011;11959;49.418;8.728;2023-04-01T03:19:13;6.28;;;1.02;;
23561;SDS011;11959;49.418;8.728;2023-04-01T03:21:38;3.45;;;1.10;;
23561;SDS011;11959;49.418;8.728;2023-04-01T03:24:04;3.08;;;1.13;;
23561;SDS011;11959;49.418;8.728;2023-04-01T03:26:31;4.63;;;1.05;;
23561;SDS011;11959;49.418;8.728;2023-04-01T03:28:57;3.95;;;0.90;;
23561;SDS011;11959;49.418;8.728;2023-04-01T03:31:22;4.85;;;0.95;;
23561;SDS011;11959;49.418;8.728;2023-04-01T03:33:48;2.28;;;0.60;;
23561;SDS011;11959;49.418;8.728;2023-04-01T03:36:14;5.20;;;0.80;;
23561;SDS011;11959;49.418;8.728;2023-04-01T03:38:40;5.38;;;0.73;;
23561;SDS011;11959;49.418;8.728;2023-04-01T03:41:07;5.00;;;0.82;;
23561;SDS011;11959;49.418;8.728;2023-04-01T03:43:37;3.85;;;1.17;;
23561;SDS011;11959;49.418;8.728;2023-04-01T03:46:03;3.58;;;0.82;;
23561;SDS011;11959;49.418;8.728;2023-04-01T03:48:28;2.42;;;0.80;;
23561;SDS011;11959;49.418;8.728;2023-04-01T03:50:54;7.40;;;0.93;;
23561;SDS011;11959;49.418;8.728;2023-04-01T03:53:20;1.92;;;0.50;;
23561;SDS011;11959;49.418;8.728;2023-04-01T03:55:46;2.78;;;0.60;;
23561;SDS011;11959;49.418;8.728;2023-04-01T03:58:11;2.17;;;0.70;;
23561;SDS011;11959;49.418;8.728;2023-04-01T04:00:37;4.72;;;0.77;;
23561;SDS011;11959;49.418;8.728;2023-04-01T04:03:03;2.30;;;0.52;;
23561;SDS011;11959;49.418;8.728;2023-04-01T04:05:28;4.50;;;0.70;;
23561;SDS011;11959;49.418;8.728;2023-04-01T04:07:54;1.33;;;0.40;;
23561;SDS011;11959;49.418;8.728;2023-04-01T04:10:20;4.10;;;0.52;;
23561;SDS011;11959;49.418;8.728;2023-04-01T04:12:48;3.85;;;0.75;;
23561;SDS011;11959;49.418;8.728;2023-04-01T04:15:15;3.97;;;0.50;;
23561;SDS011;11959;49.418;8.728;2023-04-01T04:17:41;3.08;;;0.50;;
23561;SDS011;11959;49.418;8.728;2023-04-01T04:20:06;2.85;;;0.60;;
23561;SDS011;11959;49.418;8.728;2023-04-01T04:22:33;2.35;;;0.50;;
23561;SDS011;11959;49.418;8.728;2023-04-01T04:24:59;4.38;;;0.65;;
23561;SDS011;11959;49.418;8.728;2023-04-01T04:27:25;1.58;;;0.50;;
23561;SDS011;11959;49.418;8.728;2023-04-01T04:29:50;2.33;;;0.70;;
23561;SDS011;11959;49.418;8.728;2023-04-01T04:32:16;4.28;;;0.50;;
23561;SDS011;11959;49.418;8.728;2023-04-01T04:34:42;1.35;;;0.40;;
23561;SDS011;11959;49.418;8.728;2023-04-01T04:37:07;2.50;;;0.55;;
23561;SDS011;11959;49.418;8.728;2023-04-01T04:39:33;4.55;;;0.60;;
23561;SDS011;11959;49.418;8.728;2023-04-01T04:41:58;4.15;;;0.75;;
23561;SDS011;11959;49.418;8.728;2023-04-01T04:44:24;3.30;;;0.50;;
23561;SDS011;11959;49.418;8.728;2023-04-01T04:46:50;3.30;;;0.77;;
23561;SDS011;11959;49.418;8.728;2023-04-01T04:49:15;4.05;;;0.65;;
23561;SDS011;11959;49.418;8.728;2023-04-01T04:51:41;3.42;;;0.73;;
23561;SDS011;11959;49.418;8.728;2023-04-01T04:54:07;4.05;;;0.60;;
23561;SDS011;11959;49.418;8.728;2023-04-01T04:56:33;3.30;;;0.43;;
23561;SDS011;11959;49.418;8.728;2023-04-01T04:59:01;2.38;;;0.60;;
23561;SDS011;11959;49.418;8.728;2023-04-01T05:01:27;2.55;;;0.60;;
23561;SDS011;11959;49.418;8.728;2023-04-01T05:03:52;3.20;;;0.70;;
23561;SDS011;11959;49.418;8.728;2023-04-01T05:06:18;2.38;;;0.68;;
23561;SDS011;11959;49.418;8.728;2023-04-01T05:08:44;2.53;;;0.70;;
23561;SDS011;11959;49.418;8.728;2023-04-01T05:11:12;3.70;;;0.57;;
23561;SDS011;11959;49.418;8.728;2023-04-01T05:13:38;3.80;;;0.70;;
23561;SDS011;11959;49.418;8.728;2023-04-01T05:16:07;4.22;;;0.85;;
23561;SDS011;11959;49.418;8.728;2023-04-01T05:18:38;3.35;;;0.70;;
23561;SDS011;11959;49.418;8.728;2023-04-01T05:21:03;1.58;;;0.57;;
23561;SDS011;11959;49.418;8.728;2023-04-01T05:23:31;3.03;;;0.73;;
23561;SDS011;11959;49.418;8.728;2023-04-01T05:25:58;4.07;;;0.57;;
23561;SDS011;11959;49.418;8.728;2023-04-01T05:28:24;5.65;;;0.73;;
23561;SDS011;11959;49.418;8.728;2023-04-01T05:30:49;3.42;;;0.70;;
23561;SDS011;11959;49.418;8.728;2023-04-01T05:33:16;3.97;;;0.80;;
23561;SDS011;11959;49.418;8.728;2023-04-01T05:35:41;3.60;;;0.70;;
23561;SDS011;11959;49.418;8.728;2023-04-01T05:38:07;2.58;;;0.70;;
23561;SDS011;11959;49.418;8.728;2023-04-01T05:40:34;2.72;;;0.70;;
23561;SDS011;11959;49.418;8.728;2023-04-01T05:42:59;3.45;;;0.75;;
23561;SDS011;11959;49.418;8.728;2023-04-01T05:45:25;3.65;;;0.93;;
23561;SDS011;11959;49.418;8.728;2023-04-01T05:47:51;3.63;;;0.82;;
23561;SDS011;11959;49.418;8.728;2023-04-01T05:50:17;5.53;;;0.93;;
23561;SDS011;11959;49.418;8.728;2023-04-01T05:52:43;3.33;;;0.77;;
23561;SDS011;11959;49.418;8.728;2023-04-01T05:55:10;4.20;;;0.63;;
23561;SDS011;11959;49.418;8.728;2023-04-01T05:57:35;2.50;;;0.80;;
23561;SDS011;11959;49.418;8.728;2023-04-01T06:00:01;4.93;;;0.80;;
23561;SDS011;11959;49.418;8.728;2023-04-01T06:02:28;2.35;;;0.52;;
23561;SDS011;11959;49.418;8.728;2023-04-01T06:04:54;5.28;;;0.77;;
23561;SDS011;11959;49.418;8.728;2023-04-01T06:07:38;2.00;;;0.63;;
23561;SDS011;11959;49.418;8.728;2023-04-01T06:10:08;6.78;;;1.25;;
23561;SDS011;11959;49.418;8.728;2023-04-01T06:12:48;5.55;;;0.90;;
23561;SDS011;11959;49.418;8.728;2023-04-01T06:15:23;3.00;;;0.63;;
23561;SDS011;11959;49.418;8.728;2023-04-01T06:20:59;5.03;;;1.00;;
23561;SDS011;11959;49.418;8.728;2023-04-01T06:26:26;5.47;;;1.58;;
23561;SDS011;11959;49.418;8.728;2023-04-01T06:37:07;4.88;;;1.63;;
23561;SDS011;11959;49.418;8.728;2023-04-01T06:56:13;3.13;;;0.63;;
23561;SDS011;11959;49.418;8.728;2023-04-01T06:58:44;2.63;;;0.63;;
23561;SDS011;11959;49.418;8.728;2023-04-01T07:01:20;2.95;;;0.75;;
23561;SDS011;11959;49.418;8.728;2023-04-01T07:03:57;3.88;;;0.73;;
23561;SDS011;11959;49.418;8.728;2023-04-01T07:06:31;1.48;;;0.55;;
23561;SDS011;11959;49.418;8.728;2023-04-01T07:09:06;2.60;;;0.68;;
23561;SDS011;11959;49.418;8.728;2023-04-01T07:11:37;3.17;;;0.50;;
23561;SDS011;11959;49.418;8.728;2023-04-01T07:16:51;1.80;;;0.45;;
23561;SDS011;11959;49.418;8.728;2023-04-01T07:22:42;5.45;;;0.90;;
23561;SDS011;11959;49.418;8.728;2023-04-01T07:24:49;2.47;;;0.73;;
23561;SDS011;11959;49.418;8.728;2023-04-01T07:27:16;1.25;;;0.57;;
23561;SDS011;11959;49.418;8.728;2023-04-01T07:29:42;2.55;;;0.50;;
23561;SDS011;11959;49.418;8.728;2023-04-01T07:40:34;3.15;;;0.85;;
23561;SDS011;11959;49.418;8.728;2023-04-01T07:46:06;2.63;;;0.75;;
23561;SDS011;11959;49.418;8.728;2023-04-01T07:54:04;3.42;;;0.50;;
23561;SDS011;11959;49.418;8.728;2023-04-01T07:57:02;4.60;;;0.50;;
23561;SDS011;11959;49.418;8.728;2023-04-01T07:59:39;3.65;;;0.85;;
23561;SDS011;11959;49.418;8.728;2023-04-01T08:02:30;4.55;;;0.77;;
23561;SDS011;11959;49.418;8.728;2023-04-01T08:05:14;2.10;;;0.60;;
23561;SDS011;11959;49.418;8.728;2023-04-01T08:13:55;3.33;;;0.50;;
23561;SDS011;11959;49.418;8.728;2023-04-01T08:16:26;3.70;;;0.70;;
23561;SDS011;11959;49.418;8.728;2023-04-01T08:19:15;2.92;;;0.63;;
23561;SDS011;11959;49.418;8.728;2023-04-01T08:22:04;2.50;;;0.52;;
23561;SDS011;11959;49.418;8.728;2023-04-01T08:24:43;1.90;;;0.52;;
23561;SDS011;11959;49.418;8.728;2023-04-01T08:27:34;2.05;;;0.60;;
23561;SDS011;11959;49.418;8.728;2023-04-01T08:29:57;2.05;;;0.45;;
23561;SDS011;11959;49.418;8.728;2023-04-01T08:32:36;0.82;;;0.50;;
23561;SDS011;11959;49.418;8.728;2023-04-01T08:35:09;3.10;;;0.60;;
23561;SDS011;11959;49.418;8.728;2023-04-01T08:37:45;1.88;;;0.40;;
23561;SDS011;11959;49.418;8.728;2023-04-01T08:43:03;1.27;;;0.57;;
23561;SDS011;11959;49.418;8.728;2023-04-01T09:00:15;1.67;;;0.60;;
23561;SDS011;11959;49.418;8.728;2023-04-01T09:02:50;1.90;;;0.68;;
23561;SDS011;11959;49.418;8.728;2023-04-01T09:05:36;3.42;;;0.70;;
23561;SDS011;11959;49.418;8.728;2023-04-01T09:13:55;1.17;;;0.60;;
23561;SDS011;11959;49.418;8.728;2023-04-01T09:16:50;1.92;;;0.50;;
23561;SDS011;11959;49.418;8.728;2023-04-01T09:22:52;3.00;;;0.68;;
23561;SDS011;11959;49.418;8.728;2023-04-01T09:28:18;2.05;;;0.75;;
23561;SDS011;11959;49.418;8.728;2023-04-01T09:44:35;1.83;;;0.60;;
23561;SDS011;11959;49.418;8.728;2023-04-01T10:43:00;2.45;;;0.70;;
23561;SDS011;11959;49.418;8.728;2023-04-01T11:19:06;1.23;;;0.60;;
23561;SDS011;11959;49.418;8.728;2023-04-01T11:35:49;1.27;;;0.50;;
23561;SDS011;11959;49.418;8.728;2023-04-01T11:41:45;1.20;;;0.50;;
23561;SDS011;11959;49.418;8.728;2023-04-01T11:44:29;2.28;;;0.80;;
23561;SDS011;11959;49.418;8.728;2023-04-01T12:14:48;1.48;;;0.50;;
23561;SDS011;11959;49.418;8.728;2023-04-01T12:17:33;1.08;;;0.65;;
23561;SDS011;11959;49.418;8.728;2023-04-01T12:28:21;1.45;;;0.40;;
23561;SDS011;11959;49.418;8.728;2023-04-01T12:33:52;0.77;;;0.60;;
23561;SDS011;11959;49.418;8.728;2023-04-01T12:52:49;0.90;;;0.60;;
23561;SDS011;11959;49.418;8.728;2023-04-01T13:08:52;1.08;;;0.45;;
23561;SDS011;11959;49.418;8.728;2023-04-01T13:16:42;0.93;;;0.57;;
23561;SDS011;11959;49.418;8.728;2023-04-01T13:19:21;1.35;;;0.60;;
23561;SDS011;11959;49.418;8.728;2023-04-01T13:22:13;2.13;;;0.80;;
23561;SDS011;11959;49.418;8.728;2023-04-01T13:27:40;1.33;;;0.50;;
23561;SDS011;11959;49.418;8.728;2023-04-01T13:35:38;2.03;;;0.70;;
23561;SDS011;11959;49.418;8.728;2023-04-01T13:38:22;2.05;;;0.60;;
23561;SDS011;11959;49.418;8.728;2023-04-01T13:41:18;0.93;;;0.50;;
23561;SDS011;11959;49.418;8.728;2023-04-01T13:43:58;0.63;;;0.45;;
23561;SDS011;11959;49.418;8.728;2023-04-01T13:57:33;0.95;;;0.50;;
23561;SDS011;11959;49.418;8.728;2023-04-01T14:00:32;2.05;;;0.60;;
23561;SDS011;11959;49.418;8.728;2023-04-01T14:12:06;1.55;;;0.60;;
23561;SDS011;11959;49.418;8.728;2023-04-01T14:14:54;1.53;;;0.70;;
23561;SDS011;11959;49.418;8.728;2023-04-01T14:25:31;1.63;;;1.08;;
23561;SDS011;11959;49.418;8.728;2023-04-01T14:47:39;1.08;;;0.60;;
23561;SDS011;11959;49.418;8.728;2023-04-01T14:50:13;0.70;;;0.50;;
23561;SDS011;11959;49.418;8.728;2023-04-01T14:52:43;1.08;;;0.40;;
23561;SDS011;11959;49.418;8.728;2023-04-01T14:58:09;1.20;;;0.68;;
23561;SDS011;11959;49.418;8.728;2023-04-01T15:03:29;1.15;;;0.38;;
23561;SDS011;11959;49.418;8.728;2023-04-01T15:12:19;0.93;;;0.30;;
23561;SDS011;11959;49.418;8.728;2023-04-01T15:17:58;0.95;;;0.47;;
23561;SDS011;11959;49.418;8.728;2023-04-01T15:25:30;2.65;;;0.50;;
23561;SDS011;11959;49.418;8.728;2023-04-01T15:38:48;1.70;;;0.70;;
23561;SDS011;11959;49.418;8.728;2023-04-01T15:55:41;1.25;;;0.52;;
23561;SDS011;11959;49.418;8.728;2023-04-01T16:04:07;2.15;;;0.70;;
23561;SDS011;11959;49.418;8.728;2023-04-01T16:12:18;1.60;;;0.90;;
23561;SDS011;11959;49.418;8.728;2023-04-01T16:20:22;2.05;;;1.00;;
23561;SDS011;11959;49.418;8.728;2023-04-01T16:23:02;0.77;;;0.60;;
23561;SDS011;11959;49.418;8.728;2023-04-01T16:28:21;1.77;;;0.70;;
23561;SDS011;11959;49.418;8.728;2023-04-01T16:34:08;0.98;;;0.60;;
23561;SDS011;11959;49.418;8.728;2023-04-01T16:36:45;1.67;;;0.60;;
23561;SDS011;11959;49.418;8.728;2023-04-01T16:41:47;1.35;;;0.50;;
23561;SDS011;11959;49.418;8.728;2023-04-01T16:44:44;1.10;;;0.57;;
23561;SDS011;11959;49.418;8.728;2023-04-01T16:47:36;1.70;;;1.00;;
23561;SDS011;11959;49.418;8.728;2023-04-01T16:50:12;0.90;;;0.63;;
23561;SDS011;11959;49.418;8.728;2023-04-01T16:58:26;1.02;;;0.52;;
23561;SDS011;11959;49.418;8.728;2023-04-01T17:03:40;2.22;;;0.50;;
23561;SDS011;11959;49.418;8.728;2023-04-01T17:09:14;2.10;;;0.70;;
23561;SDS011;11959;49.418;8.728;2023-04-01T17:17:49;1.52;;;0.55;;
23561;SDS011;11959;49.418;8.728;2023-04-01T17:28:40;1.05;;;0.68;;
23561;SDS011;11959;49.418;8.728;2023-04-01T17:31:21;1.95;;;0.90;;
23561;SDS011;11959;49.418;8.728;2023-04-01T17:39:29;2.72;;;0.70;;
23561;SDS011;11959;49.418;8.728;2023-04-01T17:42:09;0.98;;;0.55;;
23561;SDS011;11959;49.418;8.728;2023-04-01T17:47:43;1.77;;;0.50;;
23561;SDS011;11959;49.418;8.728;2023-04-01T17:58:19;4.28;;;1.92;;
23561;SDS011;11959;49.418;8.728;2023-04-01T18:01:26;5.05;;;1.63;;
23561;SDS011;11959;49.418;8.728;2023-04-01T18:04:13;3.08;;;0.70;;
23561;SDS011;11959;49.418;8.728;2023-04-01T18:06:47;1.30;;;0.63;;
23561;SDS011;11959;49.418;8.728;2023-04-01T18:20:36;1.23;;;0.60;;
23561;SDS011;11959;49.418;8.728;2023-04-01T18:25:46;1.90;;;1.00;;
23561;SDS011;11959;49.418;8.728;2023-04-01T18:41:43;1.58;;;0.70;;
23561;SDS011;11959;49.418;8.728;2023-04-01T18:55:56;2.03;;;0.70;;
23561;SDS011;11959;49.418;8.728;2023-04-01T18:58:33;2.53;;;1.30;;
23561;SDS011;11959;49.418;8.728;2023-04-01T19:01:23;2.33;;;1.30;;
23561;SDS011;11959;49.418;8.728;2023-04-01T19:07:19;3.60;;;1.17;;
23561;SDS011;11959;49.418;8.728;2023-04-01T19:10:00;2.83;;;1.10;;
23561;SDS011;11959;49.418;8.728;2023-04-01T19:26:43;2.90;;;1.02;;
23561;SDS011;11959;49.418;8.728;2023-04-01T19:32:08;1.10;;;0.90;;
23561;SDS011;11959;49.418;8.728;2023-04-01T19:43:02;2.28;;;0.93;;
23561;SDS011;11959;49.418;8.728;2023-04-01T19:49:01;1.05;;;0.80;;
23561;SDS011;11959;49.418;8.728;2023-04-01T19:59:27;1.35;;;0.85;;
23561;SDS011;11959;49.418;8.728;2023-04-01T20:04:48;2.33;;;1.20;;
23561;SDS011;11959;49.418;8.728;2023-04-01T20:07:52;2.45;;;1.52;;
23561;SDS011;11959;49.418;8.728;2023-04-01T20:10:20;2.47;;;1.80;;
23561;SDS011;11959;49.418;8.728;2023-04-01T20:13:00;4.28;;;2.13;;
23561;SDS011;11959;49.418;8.728;2023-04-01T20:15:41;3.45;;;2.25;;
23561;SDS011;11959;49.418;8.728;2023-04-01T20:21:02;4.03;;;1.92;;
23561;SDS011;11959;49.418;8.728;2023-04-01T20:26:22;3.92;;;1.60;;
23561;SDS011;11959;49.418;8.728;2023-04-01T20:29:15;3.78;;;1.60;;
23561;SDS011;11959;49.418;8.728;2023-04-01T20:31:54;2.65;;;1.50;;
23561;SDS011;11959;49.418;8.728;2023-04-01T20:37:01;2.53;;;1.63;;
23561;SDS011;11959;49.418;8.728;2023-04-01T20:42:39;3.50;;;1.13;;
23561;SDS011;11959;49.418;8.728;2023-04-01T20:50:58;2.53;;;1.52;;
23561;SDS011;11959;49.418;8.728;2023-04-01T20:59:25;2.88;;;1.90;;
23561;SDS011;11959;49.418;8.728;2023-04-01T21:02:10;1.88;;;1.40;;
23561;SDS011;11959;49.418;8.728;2023-04-01T21:05:09;1.63;;;1.23;;
23561;SDS011;11959;49.418;8.728;2023-04-01T21:07:51;4.18;;;1.20;;
23561;SDS011;11959;49.418;8.728;2023-04-01T21:18:42;2.45;;;1.02;;
23561;SDS011;11959;49.418;8.728;2023-04-01T21:21:39;1.77;;;1.00;;
23561;SDS011;11959;49.418;8.728;2023-04-01T21:35:47;3.42;;;1.50;;
23561;SDS011;11959;49.418;8.728;2023-04-01T21:49:19;3.85;;;1.63;;
23561;SDS011;11959;49.418;8.728;2023-04-01T21:55:50;6.90;;;1.52;;
23561;SDS011;11959;49.418;8.728;2023-04-01T22:17:28;3.13;;;1.30;;
23561;SDS011;11959;49.418;8.728;2023-04-01T22:26:02;2.88;;;1.20;;
23561;SDS011;11959;49.418;8.728;2023-04-01T22:31:17;6.75;;;1.60;;
23561;SDS011;11959;49.418;8.728;2023-04-01T22:34:23;3.65;;;1.30;;
23561;SDS011;11959;49.418;8.728;2023-04-01T22:45:06;3.40;;;1.27;;
23561;SDS011;11959;49.418;8.728;2023-04-01T22:52:46;2.63;;;1.40;;
23561;SDS011;11959;49.418;8.728;2023-04-01T22:55:19;2.47;;;1.30;;
23561;SDS011;11959;49.418;8.728;2023-04-01T22:57:54;3.17;;;1.20;;
23561;SDS011;11959;49.418;8.728;2023-04-01T23:00:29;3.70;;;1.60;;
23561;SDS011;11959;49.418;8.728;2023-04-01T23:03:15;3.05;;;1.50;;
23561;SDS011;11959;49.418;8.728;2023-04-01T23:06:00;5.28;;;1.60;;
23561;SDS011;11959;49.418;8.728;2023-04-01T23:10:54;3.38;;;1.83;;
23561;SDS011;11959;49.418;8.728;2023-04-01T23:13:27;4.32;;;1.55;;
23561;SDS011;11959;49.418;8.728;2023-04-01T23:16:04;4.90;;;1.48;;
23561;SDS011;11959;49.418;8.728;2023-04-01T23:18:51;3.45;;;1.50;;
23561;SDS011;11959;49.418;8.728;2023-04-01T23:21:40;4.68;;;1.45;;
23561;SDS011;11959;49.418;8.728;2023-04-01T23:24:30;5.85;;;1.70;;
23561;SDS011;11959;49.418;8.728;2023-04-01T23:27:08;2.20;;;1.30;;
23561;SDS011;11959;49.418;8.728;2023-04-01T23:32:04;3.03;;;1.30;;
23561;SDS011;11959;49.418;8.728;2023-04-01T23:34:38;3.05;;;1.50;;
23561;SDS011;11959;49.418;8.728;2023-04-01T23:37:04;3.00;;;1.30;;
23561;SDS011;11959;49.418;8.728;2023-04-01T23:39:35;3.03;;;1.50;;
23561;SDS011;11959;49.418;8.728;2023-04-01T23:42:19;2.65;;;1.30;;
23561;SDS011;11959;49.418;8.728;2023-04-01T23:44:55;3.70;;;1.30;;
23561;SDS011;11959;49.418;8.728;2023-04-01T23:47:37;5.68;;;1.77;;
23561;SDS011;11959;49.418;8.728;2023-04-01T23:50:16;2.83;;;1.58;;
23561;SDS011;11959;49.418;8.728;2023-04-01T23:52:58;2.83;;;1.55;;
23561;SDS011;11959;49.418;8.728;2023-04-01T23:55:28;3.10;;;1.50;;
